Time;durP1;ratioP1;P1;durP2;ratioP2;P2;SDS_P1;SDS_P2;PMS_P1;PMS_P2;Temp;Humidity;BMP_temperature;BMP_pressure;BME280_temperature;BME280_humidity;BME280_pressure;Samples;Min_cycle;Max_cycle;Signal;HPM_P1;HPM_P2
2022/11/25 00:00:20;;;;;;;16.15;2.83;;;7.40;99.90;;;;;;4247561;27;20039;-88
2022/11/25 00:02:21;;;;;;;7.90;2.30;;;7.50;99.90;;;;;;4225234;28;20051;-87
2022/11/25 00:04:22;;;;;;;6.07;1.38;;;7.50;99.90;;;;;;4247775;27;20498;-87
2022/11/25 00:06:34;;;;;;;18.33;2.15;;;7.50;99.90;;;;;;4220101;28;20043;-87
2022/11/25 00:08:39;;;;;;;13.48;2.40;;;7.50;99.90;;;;;;4229047;28;20044;-87
2022/11/25 00:10:41;;;;;;;10.07;2.05;;;7.50;99.90;;;;;;4220463;28;20040;-87
2022/11/25 00:12:43;;;;;;;8.52;2.28;;;7.50;99.90;;;;;;4218502;28;20048;-87
2022/11/25 00:14:44;;;;;;;10.02;1.48;;;7.50;99.90;;;;;;4216143;28;20044;-87
2022/11/25 00:16:46;;;;;;;10.35;1.85;;;7.50;99.90;;;;;;4228874;28;20046;-87
2022/11/25 00:18:50;;;;;;;13.30;2.85;;;7.50;99.90;;;;;;4230790;27;20421;-87
2022/11/25 00:20:51;;;;;;;10.50;2.08;;;7.50;99.90;;;;;;4227277;28;20122;-87
2022/11/25 00:22:52;;;;;;;11.40;2.25;;;7.50;99.90;;;;;;4220881;28;20127;-87
2022/11/25 00:24:53;;;;;;;10.27;2.20;;;7.50;99.90;;;;;;4240953;27;20462;-87
2022/11/25 00:26:53;;;;;;;13.70;2.72;;;7.50;99.90;;;;;;4229790;28;20175;-87
2022/11/25 00:28:58;;;;;;;16.27;3.20;;;7.50;99.90;;;;;;4250213;27;20126;-86
2022/11/25 00:31:17;;;;;;;13.65;3.15;;;7.50;99.90;;;;;;4246551;27;20031;-87
2022/11/25 00:33:18;;;;;;;11.48;2.42;;;7.50;99.90;;;;;;4216318;28;20091;-88
2022/11/25 00:35:20;;;;;;;16.35;2.58;;;7.60;99.90;;;;;;4230103;28;20046;-87
2022/11/25 00:37:21;;;;;;;10.48;2.58;;;7.70;99.90;;;;;;4247339;27;20131;-87
2022/11/25 00:39:24;;;;;;;17.65;3.33;;;7.70;99.90;;;;;;4209866;28;20040;-87
2022/11/25 00:46:07;;;;;;;12.80;2.35;;;7.70;99.90;;;;;;4250369;27;20047;-87
2022/11/25 00:48:09;;;;;;;15.15;2.40;;;7.70;99.90;;;;;;4246088;27;20398;-87
2022/11/25 00:50:10;;;;;;;14.70;2.13;;;7.70;99.90;;;;;;4249744;27;20059;-87
2022/11/25 00:52:15;;;;;;;15.05;2.30;;;7.70;99.90;;;;;;4239210;27;20043;-87
2022/11/25 00:54:15;;;;;;;13.68;1.98;;;7.70;99.90;;;;;;4246350;27;20045;-86
2022/11/25 00:56:16;;;;;;;13.98;2.95;;;7.70;99.90;;;;;;4249863;27;20503;-86
2022/11/25 00:58:18;;;;;;;6.85;1.75;;;8.30;99.90;;;;;;4227127;28;20046;-86
2022/11/25 01:00:19;;;;;;;12.95;2.72;;;7.80;99.90;;;;;;4218976;28;20468;-87
2022/11/25 01:02:20;;;;;;;9.88;1.75;;;7.80;99.90;;;;;;4219782;28;20048;-87
2022/11/25 01:04:22;;;;;;;8.55;2.20;;;7.80;99.90;;;;;;4228595;28;20140;-87
2022/11/25 01:06:23;;;;;;;17.45;3.47;;;7.80;99.90;;;;;;4200606;28;20057;-87
2022/11/25 01:08:27;;;;;;;17.98;2.63;;;7.80;99.90;;;;;;4246685;27;20052;-88
2022/11/25 01:10:28;;;;;;;15.68;2.50;;;7.80;99.90;;;;;;4248469;27;20411;-87
2022/11/25 01:12:29;;;;;;;16.00;2.45;;;7.80;99.90;;;;;;4239240;27;20127;-87
2022/11/25 01:14:32;;;;;;;10.35;2.88;;;7.80;99.90;;;;;;4228301;28;20075;-88
2022/11/25 01:16:34;;;;;;;10.90;2.15;;;7.80;99.90;;;;;;4226827;28;20052;-88
2022/11/25 01:18:36;;;;;;;12.25;2.70;;;7.80;99.90;;;;;;4215331;28;20605;-88
2022/11/25 01:20:37;;;;;;;14.25;2.97;;;7.90;99.90;;;;;;4236759;27;20050;-87
2022/11/25 01:22:38;;;;;;;18.20;2.55;;;7.90;99.90;;;;;;4245531;27;20133;-88
2022/11/25 01:24:39;;;;;;;9.75;2.38;;;7.80;99.90;;;;;;4218044;28;20101;-87
2022/11/25 01:26:40;;;;;;;10.32;3.42;;;7.80;99.90;;;;;;4228881;28;20048;-88
2022/11/25 01:28:41;;;;;;;15.20;2.50;;;7.90;99.90;;;;;;4243797;27;20123;-87
2022/11/25 01:30:42;;;;;;;16.85;2.60;;;7.80;99.90;;;;;;4230389;28;20047;-88
2022/11/25 01:32:43;;;;;;;19.73;2.63;;;7.80;99.90;;;;;;4218914;28;20055;-88
2022/11/25 01:34:45;;;;;;;15.45;3.65;;;7.80;99.90;;;;;;4207466;28;20440;-87
2022/11/25 01:36:46;;;;;;;11.73;2.45;;;7.80;99.90;;;;;;4230676;28;20047;-87
2022/11/25 01:38:53;;;;;;;10.50;2.45;;;7.80;99.90;;;;;;4236999;27;20058;-88
2022/11/25 01:40:53;;;;;;;10.80;3.20;;;7.80;99.90;;;;;;4216012;28;20085;-87
2022/11/25 01:42:54;;;;;;;8.13;2.13;;;7.70;99.90;;;;;;4246067;27;20433;-87
2022/11/25 01:45:33;;;;;;;11.05;3.25;;;7.70;99.90;;;;;;4204016;28;20044;-87
2022/11/25 01:47:34;;;;;;;;;;;7.70;99.90;;;;;;4246623;27;20039;-87
2022/11/25 01:49:47;;;;;;;13.15;2.88;;;7.70;99.90;;;;;;4243654;27;19926;-87
2022/11/25 01:52:10;;;;;;;14.13;2.20;;;7.70;99.90;;;;;;4228053;28;20059;-87
2022/11/25 01:54:13;;;;;;;12.90;2.88;;;7.70;99.90;;;;;;4225162;28;20131;-87
2022/11/25 01:56:15;;;;;;;16.58;3.05;;;7.70;99.90;;;;;;4220269;28;20080;-87
2022/11/25 01:58:20;;;;;;;10.90;2.65;;;7.70;99.90;;;;;;4211724;28;20061;-88
2022/11/25 02:00:21;;;;;;;11.60;3.20;;;7.60;99.90;;;;;;4212493;28;20249;-87
2022/11/25 02:02:23;;;;;;;11.13;3.50;;;7.70;99.90;;;;;;4212262;28;20039;-87
2022/11/25 02:04:31;;;;;;;8.63;2.60;;;7.70;99.90;;;;;;4232681;28;20039;-88
2022/11/25 02:06:39;;;;;;;16.38;3.03;;;7.70;99.90;;;;;;4224205;28;20504;-88
2022/11/25 02:08:42;;;;;;;14.75;2.33;;;7.70;99.90;;;;;;4210358;28;20051;-88
2022/11/25 02:10:45;;;;;;;14.10;2.80;;;7.70;99.90;;;;;;4216055;28;20048;-88
2022/11/25 02:12:47;;;;;;;16.20;2.50;;;7.70;99.90;;;;;;4216201;28;20043;-88
2022/11/25 02:14:50;;;;;;;17.52;2.90;;;7.70;99.90;;;;;;4223993;28;20040;-87
2022/11/25 02:16:52;;;;;;;12.00;2.95;;;7.70;99.90;;;;;;4217689;28;20135;-88
2022/11/25 02:18:54;;;;;;;13.55;2.55;;;7.70;99.90;;;;;;4207697;28;20536;-87
2022/11/25 02:20:56;;;;;;;11.27;3.00;;;7.70;99.90;;;;;;4236797;28;20054;-87
2022/11/25 02:23:09;;;;;;;18.92;3.60;;;7.70;99.90;;;;;;4240124;28;20152;-86
2022/11/25 02:25:15;;;;;;;12.77;2.15;;;7.70;99.90;;;;;;4227824;28;20056;-87
2022/11/25 02:27:17;;;;;;;10.75;2.85;;;7.70;99.90;;;;;;4241899;28;20032;-87
2022/11/25 02:29:19;;;;;;;14.05;3.28;;;7.70;99.90;;;;;;4221436;28;20107;-88
2022/11/25 02:31:21;;;;;;;7.18;2.67;;;7.80;99.90;;;;;;4234585;28;20072;-87
2022/11/25 02:33:22;;;;;;;11.73;2.83;;;7.70;99.90;;;;;;4220566;28;20063;-89
2022/11/25 02:35:26;;;;;;;13.40;4.05;;;7.70;99.90;;;;;;4212381;28;20097;-87
2022/11/25 02:37:27;;;;;;;11.52;2.80;;;7.70;99.90;;;;;;4229380;28;20055;-88
2022/11/25 02:39:28;;;;;;;11.85;2.25;;;7.70;99.90;;;;;;4220569;28;20527;-88
2022/11/25 02:41:36;;;;;;;15.20;2.65;;;7.70;99.90;;;;;;4213268;28;20052;-88
2022/11/25 02:43:37;;;;;;;11.80;2.60;;;7.60;99.90;;;;;;4228016;28;20058;-89
2022/11/25 02:46:09;;;;;;;16.83;3.17;;;7.90;99.90;;;;;;4228892;28;20088;-87
2022/11/25 02:48:09;;;;;;;12.10;2.70;;;7.60;99.90;;;;;;4206408;28;20124;-88
2022/11/25 02:50:12;;;;;;;17.13;2.55;;;7.60;99.90;;;;;;4223643;28;20055;-88
2022/11/25 02:52:15;;;;;;;9.18;2.90;;;7.60;99.90;;;;;;4219680;28;20076;-88
2022/11/25 02:54:18;;;;;;;13.10;2.83;;;7.60;99.90;;;;;;4226680;28;20133;-88
2022/11/25 02:56:21;;;;;;;13.57;2.90;;;7.60;99.90;;;;;;4227518;28;20127;-87
2022/11/25 02:58:23;;;;;;;14.93;3.35;;;7.60;99.90;;;;;;4218255;28;20039;-88
2022/11/25 03:00:23;;;;;;;13.98;2.97;;;7.60;99.90;;;;;;4203844;28;20093;-88
2022/11/25 03:02:24;;;;;;;13.75;2.63;;;7.60;99.90;;;;;;4228000;28;20567;-88
2022/11/25 03:04:25;;;;;;;15.75;3.40;;;7.60;99.90;;;;;;4224611;28;20104;-88
2022/11/25 03:06:28;;;;;;;9.77;3.83;;;7.60;99.90;;;;;;4227768;28;20067;-87
2022/11/25 03:08:29;;;;;;;15.48;3.13;;;7.60;99.90;;;;;;4220835;28;20397;-88
2022/11/25 03:10:31;;;;;;;12.48;2.53;;;7.60;99.90;;;;;;4226271;28;20047;-87
2022/11/25 03:12:32;;;;;;;11.88;3.63;;;7.60;99.90;;;;;;4215787;28;20792;-87
2022/11/25 03:14:33;;;;;;;17.48;3.28;;;7.70;99.90;;;;;;4216898;28;20101;-88
2022/11/25 03:16:34;;;;;;;17.67;4.00;;;7.60;99.90;;;;;;4228060;28;20051;-88
2022/11/25 03:18:36;;;;;;;13.05;3.30;;;7.70;99.90;;;;;;4220869;28;20071;-87
2022/11/25 03:20:37;;;;;;;15.25;3.22;;;7.70;99.90;;;;;;4208831;28;20067;-87
2022/11/25 03:22:38;;;;;;;19.88;4.05;;;7.70;99.90;;;;;;4217370;28;20055;-88
2022/11/25 03:24:39;;;;;;;16.80;2.97;;;7.70;99.90;;;;;;4230777;28;20040;-87
2022/11/25 03:26:41;;;;;;;23.17;4.07;;;7.70;99.90;;;;;;4230473;28;20078;-88
2022/11/25 03:28:42;;;;;;;14.77;2.83;;;7.70;99.90;;;;;;4224712;28;20123;-87
2022/11/25 03:30:43;;;;;;;7.70;2.90;;;7.70;99.90;;;;;;4230485;28;20044;-87
2022/11/25 03:32:44;;;;;;;15.90;3.22;;;7.90;99.90;;;;;;4229387;28;20043;-88
2022/11/25 03:34:46;;;;;;;16.13;3.55;;;7.70;99.90;;;;;;4220567;28;20043;-87
2022/11/25 03:36:47;;;;;;;13.75;3.58;;;7.80;99.90;;;;;;4216194;28;20127;-88
2022/11/25 03:38:49;;;;;;;15.23;3.03;;;7.70;99.90;;;;;;4230271;28;20039;-87
2022/11/25 03:40:50;;;;;;;10.32;2.65;;;7.80;99.90;;;;;;4220339;28;20093;-87
2022/11/25 03:42:52;;;;;;;11.50;3.08;;;7.70;99.90;;;;;;4221687;28;20046;-87
2022/11/25 03:44:53;;;;;;;20.98;3.60;;;7.80;99.90;;;;;;4229628;28;20040;-87
2022/11/25 03:46:54;;;;;;;14.20;3.25;;;7.80;99.90;;;;;;4231130;28;20411;-87
2022/11/25 03:48:56;;;;;;;10.93;2.85;;;7.80;99.90;;;;;;4224073;28;20502;-88
2022/11/25 03:50:57;;;;;;;14.82;4.55;;;7.80;99.90;;;;;;4244001;27;20051;-87
2022/11/25 03:52:57;;;;;;;18.25;3.53;;;7.80;99.90;;;;;;4228891;28;20086;-87
2022/11/25 03:54:58;;;;;;;16.10;4.35;;;7.80;99.90;;;;;;4207687;28;20048;-87
2022/11/25 03:56:59;;;;;;;13.68;3.63;;;7.30;99.90;;;;;;4229186;28;20047;-87
2022/11/25 03:59:00;;;;;;;11.27;3.65;;;7.80;99.90;;;;;;4206948;28;20047;-87
2022/11/25 04:01:02;;;;;;;14.10;3.08;;;7.80;99.90;;;;;;4238646;27;20135;-87
2022/11/25 04:03:04;;;;;;;14.07;3.90;;;7.80;99.90;;;;;;4222403;28;20536;-88
2022/11/25 04:05:06;;;;;;;18.75;5.10;;;7.90;99.90;;;;;;4247997;27;20099;-88
2022/11/25 04:07:06;;;;;;;21.13;4.35;;;7.90;99.90;;;;;;4218427;28;20044;-87
2022/11/25 04:09:08;;;;;;;12.52;4.05;;;7.90;99.90;;;;;;4203646;28;20043;-88
2022/11/25 04:11:09;;;;;;;15.70;3.70;;;7.90;99.90;;;;;;4228307;28;20428;-88
2022/11/25 04:13:11;;;;;;;12.40;3.72;;;7.90;99.90;;;;;;4209622;28;20141;-87
2022/11/25 04:15:14;;;;;;;17.75;3.40;;;7.90;99.90;;;;;;4223818;28;20039;-88
2022/11/25 04:17:15;;;;;;;15.05;4.15;;;7.90;99.90;;;;;;4228336;28;20412;-88
2022/11/25 04:19:16;;;;;;;10.15;3.38;;;7.90;99.90;;;;;;4248165;27;20039;-88
2022/11/25 04:21:17;;;;;;;10.43;3.38;;;8.00;99.90;;;;;;4207285;28;20127;-88
2022/11/25 04:23:18;;;;;;;15.50;4.25;;;7.90;99.90;;;;;;4246941;27;20147;-88
2022/11/25 04:25:21;;;;;;;22.48;3.90;;;7.90;99.90;;;;;;4230653;28;20063;-87
2022/11/25 04:27:21;;;;;;;13.10;3.95;;;7.90;99.90;;;;;;4216144;28;20341;-87
2022/11/25 04:29:22;;;;;;;14.00;3.97;;;7.90;99.90;;;;;;4232378;28;20130;-88
2022/11/25 04:31:23;;;;;;;11.73;3.58;;;7.90;99.90;;;;;;4213990;28;20052;-88
2022/11/25 04:33:23;;;;;;;13.52;4.22;;;7.90;99.90;;;;;;4251578;27;20047;-87
2022/11/25 04:35:25;;;;;;;14.43;4.20;;;7.90;99.90;;;;;;4233446;28;20051;-87
2022/11/25 04:37:26;;;;;;;26.92;5.40;;;7.90;99.90;;;;;;4232973;28;20047;-87
2022/11/25 04:39:27;;;;;;;9.30;3.47;;;7.90;99.90;;;;;;4250586;27;20070;-87
2022/11/25 04:41:28;;;;;;;26.08;4.95;;;7.90;99.90;;;;;;4251962;27;20464;-87
2022/11/25 04:43:30;;;;;;;20.70;4.72;;;7.90;99.90;;;;;;4225285;28;20039;-88
2022/11/25 04:45:31;;;;;;;18.50;4.28;;;7.90;99.90;;;;;;4234374;28;20476;-87
2022/11/25 04:47:32;;;;;;;18.60;3.80;;;7.90;99.90;;;;;;4217193;28;20108;-88
2022/11/25 04:49:34;;;;;;;16.98;4.55;;;7.90;99.90;;;;;;4206889;28;20113;-88
2022/11/25 04:51:35;;;;;;;21.60;5.25;;;7.90;99.90;;;;;;4216018;28;20052;-88
2022/11/25 04:53:36;;;;;;;21.05;4.72;;;7.90;99.90;;;;;;4232786;28;20082;-88
2022/11/25 04:55:37;;;;;;;15.73;5.85;;;7.90;99.90;;;;;;4251404;27;20138;-88
2022/11/25 04:57:38;;;;;;;22.45;4.50;;;7.90;99.90;;;;;;4216888;28;20052;-88
2022/11/25 04:59:41;;;;;;;17.23;5.05;;;7.90;99.90;;;;;;4233342;28;20504;-88
2022/11/25 05:01:42;;;;;;;19.63;4.75;;;7.90;99.90;;;;;;4250786;27;20142;-88
2022/11/25 05:03:47;;;;;;;16.17;5.00;;;7.80;99.90;;;;;;4250694;27;20043;-88
2022/11/25 05:05:49;;;;;;;18.52;4.65;;;7.90;99.90;;;;;;4251261;27;20040;-88
2022/11/25 05:07:50;;;;;;;23.13;5.35;;;7.90;99.90;;;;;;4216220;28;20531;-88
2022/11/25 05:09:51;;;;;;;11.02;4.53;;;7.90;99.90;;;;;;4216999;28;20043;-87
2022/11/25 05:11:53;;;;;;;17.17;4.93;;;7.90;99.90;;;;;;4250420;27;20037;-88
2022/11/25 05:13:54;;;;;;;16.42;5.97;;;7.90;99.90;;;;;;4216625;28;20047;-88
2022/11/25 05:15:59;;;;;;;18.42;5.00;;;7.90;99.90;;;;;;4200857;28;20053;-88
2022/11/25 05:17:59;;;;;;;13.43;4.82;;;7.90;99.90;;;;;;4251640;27;20050;-87
2022/11/25 05:20:03;;;;;;;16.73;4.43;;;7.90;99.90;;;;;;4209155;28;20080;-88
2022/11/25 05:22:04;;;;;;;13.60;5.07;;;7.90;99.90;;;;;;4219082;28;20047;-88
2022/11/25 05:24:06;;;;;;;16.02;5.25;;;7.90;99.90;;;;;;4251669;27;20047;-88
2022/11/25 05:26:07;;;;;;;16.25;4.50;;;7.90;99.90;;;;;;4216681;28;20579;-88
2022/11/25 05:28:08;;;;;;;19.98;4.82;;;7.90;99.90;;;;;;4254546;27;20039;-87
2022/11/25 05:30:10;;;;;;;20.63;5.50;;;7.90;99.90;;;;;;4234037;28;20063;-88
2022/11/25 05:32:11;;;;;;;11.15;4.95;;;7.90;99.90;;;;;;4233808;28;20046;-87
2022/11/25 05:34:13;;;;;;;14.20;4.85;;;7.90;99.90;;;;;;4219220;28;20058;-87
2022/11/25 05:36:15;;;;;;;18.02;6.20;;;7.90;99.90;;;;;;4220556;28;20079;-87
2022/11/25 05:38:16;;;;;;;22.50;5.15;;;7.90;99.90;;;;;;4252641;27;20043;-87
2022/11/25 05:40:16;;;;;;;12.85;4.43;;;7.90;99.90;;;;;;4234695;28;20075;-88
2022/11/25 05:42:17;;;;;;;21.00;5.45;;;7.90;99.90;;;;;;4235511;28;20039;-87
2022/11/25 05:44:19;;;;;;;21.77;5.68;;;7.90;99.90;;;;;;4234308;28;20078;-87
2022/11/25 05:46:20;;;;;;;21.83;5.05;;;7.90;99.90;;;;;;4233496;28;20183;-88
2022/11/25 05:48:20;;;;;;;21.15;5.38;;;7.90;99.90;;;;;;4250267;27;20511;-88
2022/11/25 05:50:21;;;;;;;16.10;4.97;;;7.90;99.90;;;;;;4231811;28;20439;-88
2022/11/25 05:52:22;;;;;;;14.05;5.30;;;7.90;99.90;;;;;;4239639;27;20038;-88
2022/11/25 05:54:23;;;;;;;23.27;6.18;;;7.90;99.90;;;;;;4250950;27;20421;-88
2022/11/25 05:56:23;;;;;;;20.50;5.13;;;7.90;99.90;;;;;;4215454;28;20126;-87
2022/11/25 05:58:25;;;;;;;14.55;6.00;;;7.90;99.90;;;;;;4232464;28;20039;-88
2022/11/25 06:00:26;;;;;;;23.40;6.15;;;7.90;99.90;;;;;;4250868;27;20084;-88
2022/11/25 06:02:28;;;;;;;15.02;4.90;;;7.90;99.90;;;;;;4254516;27;20113;-88
2022/11/25 06:04:30;;;;;;;15.80;5.72;;;7.90;99.90;;;;;;4231838;28;20089;-87
2022/11/25 06:06:31;;;;;;;15.95;5.82;;;7.90;99.90;;;;;;4231938;28;20051;-87
2022/11/25 06:08:33;;;;;;;22.42;5.22;;;7.90;99.90;;;;;;4248895;27;20511;-88
2022/11/25 06:10:39;;;;;;;17.88;5.20;;;7.90;99.90;;;;;;4232094;28;20051;-87
2022/11/25 06:12:39;;;;;;;20.08;5.57;;;8.00;99.90;;;;;;4250010;27;20031;-88
2022/11/25 06:14:40;;;;;;;17.67;5.85;;;7.90;99.90;;;;;;4249566;27;20522;-87
2022/11/25 06:16:41;;;;;;;14.05;5.40;;;8.00;99.90;;;;;;4214797;28;20079;-87
2022/11/25 06:18:41;;;;;;;19.77;5.68;;;8.00;99.90;;;;;;4248578;27;20052;-86
2022/11/25 06:20:42;;;;;;;16.90;7.00;;;8.00;99.90;;;;;;4250100;27;20118;-86
2022/11/25 06:22:44;;;;;;;19.50;5.03;;;8.00;99.90;;;;;;4214459;28;20439;-86
2022/11/25 06:24:45;;;;;;;11.82;5.13;;;8.00;99.90;;;;;;4215104;28;20051;-86
2022/11/25 06:26:45;;;;;;;19.58;6.13;;;8.00;99.90;;;;;;4229625;28;20062;-86
2022/11/25 06:28:47;;;;;;;17.30;5.13;;;8.00;99.90;;;;;;4243770;27;20050;-86
2022/11/25 06:30:48;;;;;;;22.13;5.50;;;8.00;99.90;;;;;;4237358;27;20104;-88
2022/11/25 06:32:49;;;;;;;19.58;6.00;;;8.00;99.90;;;;;;4247688;28;20039;-86
2022/11/25 06:34:51;;;;;;;14.13;5.07;;;8.00;99.90;;;;;;4218306;28;20107;-87
2022/11/25 06:36:52;;;;;;;14.93;5.22;;;8.00;99.90;;;;;;4241412;27;20108;-86
2022/11/25 06:38:53;;;;;;;14.05;5.25;;;8.00;99.90;;;;;;4238555;28;20407;-86
2022/11/25 06:41:02;;;;;;;13.15;4.80;;;8.00;99.90;;;;;;4256043;27;20043;-86
2022/11/25 06:43:03;;;;;;;15.77;5.20;;;8.00;99.90;;;;;;4254782;27;20038;-88
2022/11/25 06:45:05;;;;;;;22.95;5.93;;;8.10;99.90;;;;;;4237217;28;20118;-88
2022/11/25 06:47:06;;;;;;;22.85;7.18;;;8.10;99.90;;;;;;4225557;28;20070;-87
2022/11/25 06:49:06;;;;;;;12.68;5.03;;;8.10;99.90;;;;;;4241709;27;20043;-87
2022/11/25 06:51:10;;;;;;;16.95;5.18;;;8.10;99.90;;;;;;4237380;28;20062;-87
2022/11/25 06:53:10;;;;;;;14.52;5.60;;;8.10;99.90;;;;;;4237414;28;20043;-87
2022/11/25 06:55:11;;;;;;;25.05;5.18;;;8.10;99.90;;;;;;4237892;28;20530;-87
2022/11/25 06:57:18;;;;;;;18.08;5.60;;;8.10;99.90;;;;;;4239399;28;20031;-88
2022/11/25 06:59:20;;;;;;;10.07;4.32;;;8.10;99.90;;;;;;4238445;28;20058;-87
2022/11/25 07:01:27;;;;;;;14.55;5.28;;;8.10;99.90;;;;;;4238001;27;20075;-87
2022/11/25 07:03:28;;;;;;;14.32;5.03;;;8.10;99.90;;;;;;4220404;28;20083;-87
2022/11/25 07:05:29;;;;;;;20.67;4.97;;;8.10;99.90;;;;;;4237344;28;20057;-87
2022/11/25 07:07:31;;;;;;;13.63;4.63;;;8.10;99.90;;;;;;4236760;28;20104;-87
2022/11/25 07:09:32;;;;;;;12.60;4.55;;;8.10;99.90;;;;;;4235978;28;20043;-87
2022/11/25 07:11:35;;;;;;;19.17;5.95;;;8.10;99.90;;;;;;4236929;28;20039;-87
2022/11/25 07:13:36;;;;;;;19.73;5.32;;;8.10;99.90;;;;;;4236306;28;20054;-87
2022/11/25 07:15:37;;;;;;;10.45;4.97;;;8.10;99.90;;;;;;4219235;28;20404;-87
2022/11/25 07:17:38;;;;;;;15.27;4.97;;;8.10;99.90;;;;;;4209775;28;20106;-87
2022/11/25 07:19:39;;;;;;;9.27;4.28;;;8.20;99.90;;;;;;4220576;28;20040;-87
2022/11/25 07:21:44;;;;;;;14.38;4.32;;;8.10;99.90;;;;;;4219956;28;20052;-87
2022/11/25 07:23:48;;;;;;;14.88;4.22;;;8.20;99.90;;;;;;4221955;27;20044;-86
2022/11/25 07:25:49;;;;;;;17.20;5.18;;;8.20;99.90;;;;;;4228967;28;20113;-87
2022/11/25 07:27:49;;;;;;;11.55;4.47;;;8.20;99.90;;;;;;4233665;28;20052;-88
2022/11/25 07:29:50;;;;;;;15.70;4.07;;;8.20;99.90;;;;;;4237638;28;20106;-88
2022/11/25 07:31:51;;;;;;;13.15;4.07;;;8.20;99.90;;;;;;4219393;28;20135;-87
2022/11/25 07:33:58;;;;;;;13.57;4.35;;;8.30;99.90;;;;;;4230649;28;20078;-87
2022/11/25 07:36:07;;;;;;;14.30;4.45;;;8.20;99.90;;;;;;4237816;27;20089;-87
2022/11/25 07:38:09;;;;;;;10.20;4.38;;;8.20;99.90;;;;;;4237918;28;20047;-89
2022/11/25 07:40:11;;;;;;;18.05;4.05;;;8.20;99.90;;;;;;4221965;28;20818;-90
2022/11/25 07:42:12;;;;;;;18.30;5.38;;;8.20;99.90;;;;;;4239761;28;20051;-90
2022/11/25 07:44:13;;;;;;;12.30;3.95;;;8.20;99.90;;;;;;4226381;28;20060;-91
2022/11/25 07:46:19;;;;;;;18.38;4.53;;;8.30;99.90;;;;;;4221524;28;20048;-91
2022/11/25 07:48:20;;;;;;;11.65;3.50;;;8.30;99.90;;;;;;4222443;28;20047;-87
2022/11/25 07:50:21;;;;;;;9.40;3.17;;;8.30;99.90;;;;;;4242816;27;20134;-90
2022/11/25 07:52:27;;;;;;;11.45;3.88;;;8.30;99.90;;;;;;4240355;28;20047;-87
2022/11/25 07:54:28;;;;;;;9.38;3.95;;;8.30;99.90;;;;;;4223597;28;20093;-88
2022/11/25 07:56:29;;;;;;;9.20;3.88;;;8.30;99.90;;;;;;4259471;27;20035;-88
2022/11/25 07:58:30;;;;;;;12.25;4.22;;;8.30;99.90;;;;;;4256905;27;20487;-88
2022/11/25 08:00:31;;;;;;;13.35;2.88;;;8.30;99.90;;;;;;4258322;27;20171;-88
2022/11/25 08:02:31;;;;;;;7.43;2.67;;;8.30;99.90;;;;;;4258112;27;20043;-89
2022/11/25 08:04:32;;;;;;;9.77;3.20;;;8.40;99.90;;;;;;4240634;28;20073;-89
2022/11/25 08:06:41;;;;;;;8.32;2.80;;;8.40;99.90;;;;;;4219410;28;20516;-89
2022/11/25 08:08:42;;;;;;;10.70;2.67;;;8.40;99.90;;;;;;4215256;28;20039;-89
2022/11/25 08:10:43;;;;;;;9.13;2.70;;;8.40;99.90;;;;;;4244074;27;20392;-89
2022/11/25 08:12:44;;;;;;;9.88;2.92;;;8.50;99.90;;;;;;4217478;28;20058;-89
2022/11/25 08:14:45;;;;;;;11.07;3.13;;;8.50;99.90;;;;;;4252513;27;20050;-89
2022/11/25 08:16:46;;;;;;;10.25;2.97;;;8.50;99.90;;;;;;4250717;27;20491;-88
2022/11/25 08:18:48;;;;;;;12.20;3.67;;;8.50;99.90;;;;;;4242635;27;20043;-88
2022/11/25 08:20:49;;;;;;;9.85;3.67;;;8.50;99.90;;;;;;4203315;28;20053;-89
2022/11/25 08:22:49;;;;;;;12.55;3.10;;;8.50;99.90;;;;;;4245016;27;20465;-87
2022/11/25 08:24:50;;;;;;;13.25;3.28;;;8.50;99.90;;;;;;4252774;27;20043;-87
2022/11/25 08:26:53;;;;;;;8.52;1.90;;;8.50;99.90;;;;;;4233896;28;20077;-87
2022/11/25 08:28:56;;;;;;;12.23;2.95;;;8.50;99.90;;;;;;4251502;27;20063;-88
2022/11/25 08:31:04;;;;;;;7.13;2.15;;;8.60;99.90;;;;;;4251204;27;20487;-88
2022/11/25 08:33:06;;;;;;;5.72;2.25;;;8.70;99.90;;;;;;4233109;28;20055;-87
2022/11/25 08:35:07;;;;;;;11.73;2.30;;;8.70;99.90;;;;;;4234507;28;20043;-87
2022/11/25 08:37:08;;;;;;;7.95;2.40;;;8.80;99.90;;;;;;4217397;28;20134;-88
2022/11/25 08:39:09;;;;;;;8.70;2.08;;;8.90;99.90;;;;;;4216330;28;20048;-87
2022/11/25 08:41:12;;;;;;;5.20;1.90;;;9.10;99.90;;;;;;4245705;27;20046;-88
2022/11/25 08:43:13;;;;;;;5.43;2.00;;;9.20;99.90;;;;;;4233292;28;20123;-87
2022/11/25 08:45:15;;;;;;;13.35;3.17;;;9.30;99.90;;;;;;4233924;28;20046;-87
2022/11/25 08:47:15;;;;;;;6.60;2.22;;;9.60;99.90;;;;;;4216545;28;20044;-87
2022/11/25 08:49:18;;;;;;;7.93;2.40;;;9.60;99.90;;;;;;4221094;28;20054;-88
2022/11/25 08:51:22;;;;;;;6.47;2.08;;;9.80;99.90;;;;;;4232946;28;20551;-88
2022/11/25 08:53:24;;;;;;;6.28;2.08;;;10.00;99.90;;;;;;4251728;27;20070;-88
2022/11/25 08:55:26;;;;;;;9.43;2.58;;;10.30;99.90;;;;;;4251001;27;20053;-88
2022/11/25 08:57:27;;;;;;;7.78;2.45;;;10.70;99.90;;;;;;4250614;27;20064;-88
2022/11/25 08:59:28;;;;;;;5.60;2.05;;;11.00;99.90;;;;;;4250981;27;20043;-88
2022/11/25 09:01:29;;;;;;;11.75;2.22;;;11.30;99.90;;;;;;4233759;28;20082;-88
2022/11/25 09:03:35;;;;;;;11.48;1.98;;;11.50;99.90;;;;;;4251525;27;20050;-88
2022/11/25 09:05:41;;;;;;;9.13;2.55;;;11.60;99.90;;;;;;4232824;28;20054;-90
2022/11/25 09:07:43;;;;;;;4.05;1.65;;;11.80;99.90;;;;;;4242900;27;20055;-88
2022/11/25 09:09:44;;;;;;;8.35;2.00;;;12.00;99.90;;;;;;4216053;28;20037;-88
2022/11/25 09:11:44;;;;;;;8.45;2.05;;;12.10;99.90;;;;;;4233502;28;20074;-88
2022/11/25 09:13:45;;;;;;;5.60;1.77;;;12.30;99.90;;;;;;4232595;28;20089;-88
2022/11/25 09:15:46;;;;;;;5.57;1.60;;;12.30;99.90;;;;;;4232344;28;20075;-88
2022/11/25 09:17:47;;;;;;;5.38;1.73;;;12.20;99.90;;;;;;4232205;28;20570;-87
2022/11/25 09:19:47;;;;;;;6.90;1.55;;;12.30;99.90;;;;;;4245450;27;20109;-89
2022/11/25 09:21:48;;;;;;;9.75;3.03;;;12.10;99.90;;;;;;4200786;28;20081;-88
2022/11/25 09:23:51;;;;;;;6.35;1.90;;;12.20;99.90;;;;;;4232714;28;20046;-88
2022/11/25 09:25:56;;;;;;;5.40;1.85;;;12.40;99.90;;;;;;4216634;28;20044;-87
2022/11/25 09:27:57;;;;;;;10.73;2.25;;;12.40;99.90;;;;;;4231532;28;20445;-87
2022/11/25 09:29:58;;;;;;;6.55;2.10;;;12.30;99.90;;;;;;4250352;27;20071;-87
2022/11/25 09:32:00;;;;;;;5.63;1.70;;;12.50;99.90;;;;;;4250837;27;20518;-87
2022/11/25 09:34:01;;;;;;;8.73;1.98;;;12.70;99.90;;;;;;4215353;28;20062;-88
2022/11/25 09:36:04;;;;;;;4.75;1.70;;;12.70;99.90;;;;;;4232187;28;20071;-88
2022/11/25 09:38:06;;;;;;;4.07;2.03;;;12.70;99.90;;;;;;4250144;27;20043;-88
2022/11/25 09:40:15;;;;;;;6.25;1.83;;;12.50;99.90;;;;;;4232293;28;20055;-88
2022/11/25 09:47:46;;;;;;;6.30;1.58;;;12.40;99.90;;;;;;4235357;28;20059;-88
2022/11/25 09:50:01;;;;;;;5.00;2.22;;;12.50;99.90;;;;;;4231452;28;20043;-88
2022/11/25 09:52:28;;;;;;;8.07;1.92;;;12.50;99.90;;;;;;4216905;28;20688;-88
2022/11/25 09:54:36;;;;;;;7.43;1.77;;;12.30;99.90;;;;;;4214835;28;20555;-88
2022/11/25 09:56:46;;;;;;;10.75;2.13;;;12.20;99.90;;;;;;4216141;28;20062;-88
2022/11/25 09:58:54;;;;;;;5.07;1.60;;;12.20;99.90;;;;;;4217663;28;20047;-88
2022/11/25 10:00:55;;;;;;;7.28;1.65;;;12.20;99.90;;;;;;4200944;28;20106;-89
2022/11/25 10:03:17;;;;;;;6.65;1.75;;;12.10;99.90;;;;;;4214296;28;20052;-88
2022/11/25 10:05:27;;;;;;;7.05;1.90;;;12.30;99.90;;;;;;4214298;28;20532;-87
2022/11/25 10:07:55;;;;;;;8.20;1.98;;;12.20;99.90;;;;;;4211617;28;20404;-88
2022/11/25 10:10:00;;;;;;;7.53;1.90;;;12.20;99.90;;;;;;4200556;28;20044;-89
2022/11/25 10:12:15;;;;;;;3.95;1.83;;;12.30;99.90;;;;;;4209750;28;20053;-88
2022/11/25 10:14:41;;;;;;;8.32;2.05;;;12.30;99.90;;;;;;4212666;28;20479;-91
2022/11/25 10:16:49;;;;;;;5.60;1.70;;;12.30;99.90;;;;;;4212102;28;20405;-93
2022/11/25 10:19:04;;;;;;;4.65;1.38;;;12.30;99.90;;;;;;4190189;28;20489;-92
2022/11/25 10:21:11;;;;;;;3.65;1.58;;;12.30;99.90;;;;;;4195753;28;20163;-92
2022/11/25 10:23:29;;;;;;;5.03;1.95;;;12.30;99.90;;;;;;4195119;28;20186;-93
2022/11/25 10:25:38;;;;;;;9.63;1.52;;;12.30;99.90;;;;;;4214456;28;20062;-93
2022/11/25 10:28:05;;;;;;;4.53;1.80;;;12.40;99.90;;;;;;4190798;28;20053;-92
2022/11/25 10:30:15;;;;;;;6.57;1.60;;;12.40;99.90;;;;;;4185274;28;20052;-91
2022/11/25 10:32:22;;;;;;;8.95;1.88;;;12.50;99.90;;;;;;4216448;28;20144;-94
2022/11/25 10:34:34;;;;;;;9.70;1.88;;;12.60;99.90;;;;;;4203432;28;20393;-92
2022/11/25 10:36:40;;;;;;;5.30;2.00;;;12.60;99.90;;;;;;4208848;28;20059;-92
2022/11/25 10:38:44;;;;;;;4.05;1.75;;;12.80;99.90;;;;;;4214036;28;20025;-92
2022/11/25 10:40:48;;;;;;;9.27;1.52;;;12.50;99.90;;;;;;4210723;28;20082;-93
2022/11/25 10:42:50;;;;;;;8.85;2.10;;;12.90;99.90;;;;;;4213986;28;20032;-92
2022/11/25 10:44:53;;;;;;;7.53;2.15;;;12.90;99.90;;;;;;4219860;28;20154;-88
2022/11/25 10:47:18;;;;;;;4.85;1.67;;;12.90;99.90;;;;;;4221901;28;20044;-92
2022/11/25 10:49:44;;;;;;;4.97;2.20;;;12.80;99.90;;;;;;4212980;28;20459;-90
2022/11/25 10:51:48;;;;;;;5.38;1.63;;;12.90;99.90;;;;;;4237798;28;20415;-89